Flood From: 24-01-2018 06:00 Until: 25-01-2018 06:00 warning for: Flood Level: Yellow info button

Although rather usual in this region, locally or potentially dangerous phenomena are expected. (such as local winds, summer thunderstorms, rising streams or high waves) Be aware and pay attention to the latest weather updates, especially if you carry out activities exposed to weather or close to a stream or shoreline. 


Meteo18 Weather Cam more information Meteo18 Weather Cam


Thunder radar more information blitzortung!


Rain radar more information rain snow radar


Visit our other weather sites:

Template documentation
and downloads

And another site



Weather Underground History page Text

Daily Summary for June 27, 2017 Units:  English    Metric   Both
« Previous Day
Next Day »
Daily Weekly Monthly Yearly Custom
  High: Low: Average:
Temperature: 77.2 °F 61 °F 68.2 °F
Dew Point: 68 °F 59.7 °F 63 °F
Humidity: 97 % 64 % 84 %
Wind Speed: 14 mph 0 mph 2.9 mph
Wind Gust: 20 mph - -
Wind:- - SSW
Pressure: 29.9 in 29.6 in -
Precipitation: 0.09 in    
Historical Graphs
 
 
Tabular Data for June 27, 2017
Time Temperature Dew Point Pressure Wind Wind Speed Wind Gust Humidity Rainfall Rate (Hourly)
00:02 64.2 °F 62.4 °F 29.9 in Calm     94 % 0 in
00:12 64.2 °F 62.8 °F 29.9 in Calm     95 % 0 in
00:17 64 °F 62.2 °F 29.9 in Calm     94 % 0 in
00:22 64 °F 62.2 °F 29.9 in Calm     94 % 0 in
00:32 63.9 °F 62.4 °F 29.9 in Calm     95 % 0 in
00:42 63.7 °F 62.2 °F 29.9 in Calm     95 % 0 in
00:52 63.3 °F 61.5 °F 29.9 in Calm     94 % 0 in
00:57 63.3 °F 61.9 °F 29.9 in Calm     95 % 0 in
01:02 63.1 °F 61.7 °F 29.9 in Calm     95 % 0 in
01:12 63.1 °F 61.7 °F 29.8 in Calm     95 % 0 in
01:17 63.1 °F 61.7 °F 29.8 in Calm     95 % 0 in
01:22 63.1 °F 61.7 °F 29.8 in Calm     95 % 0 in
01:27 63 °F 61.5 °F 29.8 in Calm     95 % 0 in
01:32 62.8 °F 61.3 °F 29.8 in Calm     95 % 0 in
01:37 62.8 °F 61.3 °F 29.8 in Calm     95 % 0 in
01:42 62.6 °F 61.2 °F 29.8 in Calm     95 % 0 in
01:52 62.4 °F 61.3 °F 29.8 in Calm     96 % 0 in
01:57 62.8 °F 61.7 °F 29.8 in Calm     96 % 0 in
02:02 63.1 °F 62.1 °F 29.8 in NNE 2 mph   96 % 0 in
02:12 61.9 °F 60.1 °F 29.8 in Calm   2 mph 94 % 0 in
02:17 61.9 °F 60.8 °F 29.8 in Calm   2 mph 96 % 0 in
02:22 61.9 °F 60.4 °F 29.8 in Calm   2 mph 95 % 0 in
02:27 61.9 °F 60.8 °F 29.8 in Calm   2 mph 96 % 0 in
02:32 61.9 °F 60.4 °F 29.8 in Calm   2 mph 95 % 0 in
02:37 61.7 °F 60.3 °F 29.8 in Calm     95 % 0 in
02:42 61.5 °F 60.1 °F 29.8 in Calm     95 % 0 in
02:47 61.3 °F 59.9 °F 29.8 in Calm     95 % 0 in
02:52 61.2 °F 60.1 °F 29.8 in Calm     96 % 0 in
02:57 61.3 °F 60.3 °F 29.8 in Calm     96 % 0 in
03:02 61.3 °F 60.3 °F 29.8 in Calm     96 % 0 in
03:12 61.2 °F 60.1 °F 29.8 in WNW 2 mph   96 % 0 in
03:17 61 °F 59.9 °F 29.8 in Calm   3 mph 96 % 0 in
03:22 61.2 °F 60.1 °F 29.8 in Calm   3 mph 96 % 0 in
03:27 61.2 °F 60.1 °F 29.8 in Calm   3 mph 96 % 0 in
03:32 61.2 °F 60.1 °F 29.8 in Calm   3 mph 96 % 0 in
03:42 61.3 °F 60.3 °F 29.8 in Calm   1 mph 96 % 0 in
03:47 61.3 °F 60.3 °F 29.8 in NE 1 mph   96 % 0 in
03:52 61.3 °F 60.3 °F 29.8 in Calm     96 % 0 in
04:02 61.3 °F 60.3 °F 29.8 in NNE 2 mph 2 mph 96 % 0 in
04:12 61 °F 59.9 °F 29.8 in Calm   3 mph 96 % 0 in
04:17 61 °F 59.9 °F 29.8 in Calm   3 mph 96 % 0 in
04:22 61 °F 59.9 °F 29.8 in Calm   3 mph 96 % 0 in
04:32 61 °F 59.9 °F 29.8 in Calm     96 % 0 in
04:42 61 °F 59.9 °F 29.8 in Calm     96 % 0 in
04:47 61.2 °F 60.1 °F 29.8 in Calm     96 % 0 in
04:52 61.3 °F 60.3 °F 29.8 in Calm     96 % 0 in
04:57 61.5 °F 60.4 °F 29.8 in Calm     96 % 0 in
05:02 61.5 °F 60.4 °F 29.8 in Calm     96 % 0 in
05:07 61.5 °F 60.4 °F 29.8 in Calm     96 % 0 in
05:12 61.5 °F 60.4 °F 29.8 in Calm     96 % 0 in
05:17 61.7 °F 60.6 °F 29.8 in Calm     96 % 0 in
05:22 62.1 °F 61.2 °F 29.8 in Calm     97 % 0 in
05:32 62.1 °F 61 °F 29.8 in Calm     96 % 0 in
05:42 62.1 °F 61 °F 29.8 in Calm     96 % 0 in
05:47 62.1 °F 61 °F 29.8 in Calm     96 % 0 in
05:52 62.2 °F 61.2 °F 29.8 in Calm     96 % 0 in
06:02 62.1 °F 61 °F 29.8 in Calm     96 % 0 in
06:12 61.9 °F 60.8 °F 29.8 in Calm     96 % 0 in
06:17 61.9 °F 60.8 °F 29.8 in Calm     96 % 0 in
06:22 61.9 °F 60.8 °F 29.8 in Calm     96 % 0 in
06:32 61.7 °F 60.6 °F 29.8 in Calm     96 % 0 in
06:42 61.5 °F 60.4 °F 29.8 in Calm     96 % 0 in
06:47 61.5 °F 60.4 °F 29.8 in Calm     96 % 0 in
06:52 61.5 °F 60.4 °F 29.8 in Calm     96 % 0 in
06:57 61.5 °F 60.4 °F 29.8 in Calm     96 % 0 in
07:02 61.3 °F 60.3 °F 29.8 in Calm     96 % 0 in
07:12 61.3 °F 60.3 °F 29.8 in Calm     96 % 0 in
07:17 61.3 °F 60.4 °F 29.8 in Calm     97 % 0 in
07:22 61.5 °F 60.6 °F 29.8 in Calm     97 % 0 in
07:32 61.9 °F 60.8 °F 29.8 in SSW 1 mph   96 % 0 in
07:37 62.2 °F 61.3 °F 29.8 in Calm   2 mph 97 % 0 in
07:42 62.8 °F 61.9 °F 29.8 in Calm   2 mph 97 % 0 in
07:47 63.1 °F 62.1 °F 29.8 in SSW 1 mph 2 mph 96 % 0 in
07:52 63.3 °F 62.2 °F 29.8 in SSW 1 mph 2 mph 96 % 0 in
08:02 63.9 °F 62.8 °F 29.8 in WSW 5 mph 5 mph 96 % 0 in
08:07 64.2 °F 63.1 °F 29.8 in SW 4 mph 8 mph 96 % 0 in
08:12 64.8 °F 63.7 °F 29.8 in South 3 mph 8 mph 96 % 0 in
08:17 64.9 °F 63.5 °F 29.8 in SSW 2 mph 8 mph 95 % 0 in
08:22 65.3 °F 63.5 °F 29.8 in SSW 2 mph 8 mph 94 % 0 in
08:32 66 °F 63.9 °F 29.8 in SW 3 mph 8 mph 93 % 0 in
08:42 66.7 °F 64 °F 29.8 in SW 4 mph 7 mph 91 % 0 in
08:47 67.3 °F 64.9 °F 29.8 in SW 4 mph 6 mph 92 % 0 in
08:52 67.6 °F 64.9 °F 29.8 in SSW 3 mph 6 mph 91 % 0 in
09:02 67.8 °F 64.2 °F 29.8 in SW 5 mph 6 mph 88 % 0 in
09:12 68.4 °F 64.4 °F 29.8 in SSW 2 mph 9 mph 87 % 0.01 in
09:17 68.7 °F 64 °F 29.8 in SSW 6 mph 11 mph 85 % 0.01 in
09:22 68.7 °F 64 °F 29.8 in SW 7 mph 11 mph 85 % 0.01 in
09:32 69.1 °F 64.4 °F 29.8 in South 6 mph 11 mph 85 % 0.01 in
09:37 69.3 °F 64.6 °F 29.8 in SSE 4 mph 10 mph 85 % 0.01 in
09:42 69.1 °F 63.7 °F 29.8 in SW 3 mph 10 mph 83 % 0.01 in
09:52 69.6 °F 64.2 °F 29.8 in SSW 3 mph 10 mph 83 % 0.01 in
10:02 70 °F 64.2 °F 29.8 in SSW 8 mph 9 mph 82 % 0.01 in
10:12 70.5 °F 64.8 °F 29.8 in South 3 mph 8 mph 82 % 0 in
10:17 71.1 °F 64.6 °F 29.8 in SSW 7 mph 11 mph 80 % 0 in
10:22 71.1 °F 63.9 °F 29.8 in SSW 9 mph 11 mph 78 % 0 in
10:32 71.8 °F 64.2 °F 29.8 in SW 4 mph 11 mph 77 % 0 in
10:42 72.5 °F 64 °F 29.8 in SW 7 mph 11 mph 75 % 0 in
10:47 72.7 °F 64.2 °F 29.8 in SW 2 mph 10 mph 75 % 0 in
10:52 73.2 °F 64 °F 29.8 in SE 4 mph 10 mph 73 % 0 in
10:57 73.6 °F 64.8 °F 29.8 in SSE 5 mph 11 mph 74 % 0 in
11:02 73.8 °F 63.7 °F 29.8 in SW 9 mph 11 mph 71 % 0 in
11:17 74.3 °F 64.8 °F 29.8 in WSW 10 mph 14 mph 72 % 0 in
11:22 73.9 °F 63.9 °F 29.8 in SW 5 mph 14 mph 71 % 0 in
11:32 73.8 °F 63.7 °F 29.8 in SSW 5 mph 13 mph 71 % 0 in
11:37 73.8 °F 63.7 °F 29.8 in WSW 7 mph 12 mph 71 % 0 in
11:42 73.8 °F 63.7 °F 29.8 in SW 6 mph 12 mph 71 % 0 in
11:47 73.8 °F 63 °F 29.8 in SW 7 mph 13 mph 69 % 0 in
11:52 73.6 °F 62.8 °F 29.8 in WSW 2 mph 13 mph 69 % 0 in
12:02 73.9 °F 63.1 °F 29.8 in WSW 6 mph 13 mph 69 % 0 in
12:12 74.1 °F 63.3 °F 29.8 in SW 7 mph 10 mph 69 % 0 in
12:17 73.8 °F 63 °F 29.8 in SSW 4 mph 11 mph 69 % 0 in
12:22 73.8 °F 63 °F 29.8 in SW 5 mph 11 mph 69 % 0 in
12:32 73.9 °F 64.4 °F 29.8 in SSW 3 mph 14 mph 72 % 0 in
12:37 73.8 °F 64.6 °F 29.8 in SSW 5 mph 14 mph 73 % 0 in
12:42 73.8 °F 64.6 °F 29.8 in SSW 8 mph 11 mph 73 % 0 in
12:47 73.9 °F 65.1 °F 29.8 in South 8 mph 11 mph 74 % 0 in
12:52 73.9 °F 64.8 °F 29.8 in WSW 8 mph 11 mph 73 % 0 in
12:57 74.1 °F 65.3 °F 29.8 in SSW 4 mph 12 mph 74 % 0 in
13:02 73.9 °F 64.8 °F 29.8 in SW 2 mph 12 mph 73 % 0 in
13:12 73.2 °F 64.8 °F 29.8 in SE 1 mph 9 mph 75 % 0 in
13:17 73 °F 64.2 °F 29.8 in SSW 3 mph 9 mph 74 % 0 in
13:27 73.2 °F 65.1 °F 29.7 in SW 1 mph 8 mph 76 % 0 in
13:32 74.3 °F 65.5 °F 29.7 in South 6 mph 8 mph 74 % 0 in
13:42 75 °F 63.7 °F 29.7 in SW 5 mph 11 mph 68 % 0 in
13:47 75.2 °F 65.1 °F 29.7 in SSW 9 mph 11 mph 71 % 0 in
13:52 75.4 °F 64.9 °F 29.7 in SW 5 mph 10 mph 70 % 0 in
13:57 76.3 °F 65.3 °F 29.7 in SSE 2 mph 10 mph 69 % 0 in
14:02 77.2 °F 64.6 °F 29.7 in South 6 mph 11 mph 65 % 0 in
14:12 76.6 °F 63.5 °F 29.7 in SW 3 mph 12 mph 64 % 0 in
14:17 76.5 °F 63.9 °F 29.7 in SSE 3 mph 12 mph 65 % 0 in
14:22 76.5 °F 63.9 °F 29.7 in WSW 2 mph 12 mph 65 % 0 in
14:27 75.9 °F 64.2 °F 29.7 in West 3 mph 7 mph 67 % 0 in
14:32 73 °F 64.9 °F 29.7 in West 10 mph 10 mph 76 % 0 in
14:37 71.1 °F 64.9 °F 29.7 in NW 3 mph 19 mph 81 % 0.03 in
14:42 70.3 °F 64.6 °F 29.7 in WNW 1 mph 19 mph 82 % 0.03 in
14:47 70 °F 64.9 °F 29.7 in WNW 4 mph 19 mph 84 % 0.04 in
14:52 69.3 °F 65.3 °F 29.7 in WNW 2 mph 13 mph 87 % 0.04 in
14:57 69.3 °F 65.3 °F 29.7 in Calm   8 mph 87 % 0.09 in
15:02 70 °F 66.6 °F 29.7 in NE 1 mph 8 mph 89 % 0.09 in
15:12 71.2 °F 67.1 °F 29.7 in NNE 2 mph 5 mph 87 % 0.09 in
15:17 71.8 °F 66.4 °F 29.7 in Calm   4 mph 83 % 0.09 in
15:27 72.7 °F 67.8 °F 29.7 in NE 3 mph 4 mph 85 % 0.08 in
15:32 72.3 °F 66.6 °F 29.7 in NNE 1 mph 4 mph 82 % 0.08 in
15:37 72.9 °F 67.1 °F 29.7 in NE 4 mph 5 mph 82 % 0.06 in
15:42 73.8 °F 66.9 °F 29.7 in ENE 2 mph 5 mph 79 % 0.06 in
15:47 74.7 °F 68 °F 29.7 in NE 1 mph 6 mph 80 % 0.05 in
15:52 75 °F 66.9 °F 29.7 in NE 2 mph 6 mph 76 % 0.05 in
15:57 75 °F 66.6 °F 29.7 in NE 2 mph 6 mph 75 % 0 in
16:02 75.2 °F 67.1 °F 29.7 in ENE 2 mph 6 mph 76 % 0 in
16:12 76.5 °F 66 °F 29.7 in SW 1 mph 6 mph 70 % 0 in
16:17 77.2 °F 66.6 °F 29.7 in Calm   5 mph 70 % 0 in
16:22 77 °F 66.4 °F 29.7 in East 6 mph 6 mph 70 % 0 in
16:32 76.5 °F 66 °F 29.7 in East 3 mph 7 mph 70 % 0 in
16:37 76.3 °F 65.8 °F 29.7 in ENE 5 mph 7 mph 70 % 0 in
16:42 76.5 °F 66.4 °F 29.7 in East 2 mph 7 mph 71 % 0 in
16:52 76.6 °F 66.2 °F 29.7 in NE 2 mph 6 mph 70 % 0 in
16:57 76.6 °F 66.2 °F 29.7 in ENE 5 mph 7 mph 70 % 0 in
17:02 76.6 °F 66.2 °F 29.7 in ENE 5 mph 7 mph 70 % 0 in
17:12 76.6 °F 66.2 °F 29.7 in East 5 mph 7 mph 70 % 0 in
17:17 76.5 °F 66 °F 29.7 in East 2 mph 7 mph 70 % 0 in
17:22 76.5 °F 65.5 °F 29.7 in ENE 2 mph 7 mph 69 % 0 in
17:27 76.6 °F 66.2 °F 29.7 in Calm   6 mph 70 % 0 in
17:32 76.5 °F 66.4 °F 29.7 in West 3 mph 6 mph 71 % 0 in
17:37 76.5 °F 66 °F 29.7 in SW 1 mph 4 mph 70 % 0 in
17:42 76.5 °F 66 °F 29.7 in WSW 3 mph 4 mph 70 % 0 in
17:47 76.5 °F 66.7 °F 29.7 in Calm   4 mph 72 % 0 in
17:57 76.3 °F 66.2 °F 29.7 in West 2 mph 6 mph 71 % 0 in
18:07 75.6 °F 64.2 °F 29.7 in SW 5 mph 12 mph 68 % 0 in
18:17 75.4 °F 62.8 °F 29.7 in West 4 mph 12 mph 65 % 0 in
18:27 75.4 °F 62.4 °F 29.7 in SW 6 mph 15 mph 64 % 0 in
18:32 75.6 °F 62.6 °F 29.7 in West 7 mph 16 mph 64 % 0 in
18:37 75.4 °F 62.8 °F 29.6 in WSW 10 mph 16 mph 65 % 0 in
18:42 74.8 °F 63.1 °F 29.6 in SW 3 mph 20 mph 67 % 0 in
18:52 73.8 °F 62.6 °F 29.6 in SW 14 mph 20 mph 68 % 0 in
18:57 73.4 °F 62.6 °F 29.6 in West 4 mph 16 mph 69 % 0 in
19:02 72.9 °F 62.4 °F 29.6 in WSW 13 mph 16 mph 70 % 0 in
19:07 72.3 °F 63.1 °F 29.6 in West 5 mph 16 mph 73 % 0 in
19:12 71.6 °F 63.3 °F 29.6 in West 6 mph 16 mph 75 % 0 in
19:17 71.2 °F 63.3 °F 29.6 in Calm   15 mph 76 % 0 in
19:22 71.1 °F 63.1 °F 29.6 in NW 2 mph 15 mph 76 % 0 in
19:32 70.9 °F 63.3 °F 29.6 in Calm   8 mph 77 % 0 in
19:42 70.5 °F 63.3 °F 29.6 in Calm   4 mph 78 % 0 in
19:52 70.3 °F 63.1 °F 29.6 in Calm   4 mph 78 % 0 in
20:02 70.3 °F 63.1 °F 29.6 in Calm   4 mph 78 % 0 in
20:12 70.2 °F 63.3 °F 29.6 in Calm   3 mph 79 % 0 in
20:17 70 °F 63.9 °F 29.6 in Calm   3 mph 81 % 0 in
20:22 69.6 °F 63.5 °F 29.6 in East 5 mph 5 mph 81 % 0 in
20:27 69.3 °F 63.9 °F 29.6 in SSE 2 mph 7 mph 83 % 0 in
20:37 68.7 °F 64 °F 29.7 in SW 1 mph 7 mph 85 % 0 in
20:42 68.5 °F 63.9 °F 29.7 in SSW 2 mph 7 mph 85 % 0 in
20:47 68.4 °F 64 °F 29.7 in SSW 4 mph 5 mph 86 % 0 in
20:52 68.2 °F 64.2 °F 29.7 in SW 6 mph 6 mph 87 % 0 in
20:57 68.2 °F 64.2 °F 29.7 in SW 5 mph 10 mph 87 % 0 in
21:02 67.8 °F 64.2 °F 29.7 in SW 8 mph 10 mph 88 % 0 in
21:12 67.5 °F 64 °F 29.7 in SSW 3 mph 10 mph 89 % 0 in
21:22 67.1 °F 63.7 °F 29.7 in SSW 7 mph 9 mph 89 % 0 in
21:32 66.9 °F 63.9 °F 29.7 in SW 7 mph 13 mph 90 % 0 in
21:37 66.7 °F 63.7 °F 29.7 in SW 11 mph 11 mph 90 % 0 in
21:47 66.7 °F 64 °F 29.7 in SSW 8 mph 11 mph 91 % 0 in
21:52 66.7 °F 64 °F 29.7 in SW 5 mph 11 mph 91 % 0 in
22:02 66.6 °F 63.5 °F 29.6 in SSW 5 mph 11 mph 90 % 0 in
22:12 66.4 °F 63.3 °F 29.6 in SW 6 mph 11 mph 90 % 0 in
22:17 66.4 °F 63.3 °F 29.6 in SSW 4 mph 10 mph 90 % 0 in
22:22 66.2 °F 63.1 °F 29.7 in SW 3 mph 10 mph 90 % 0 in
22:27 66 °F 63 °F 29.7 in SW 5 mph 10 mph 90 % 0 in
22:32 66 °F 63 °F 29.7 in SSE 6 mph 10 mph 90 % 0 in
22:37 66 °F 63 °F 29.7 in South 5 mph 8 mph 90 % 0 in
22:42 66 °F 62.6 °F 29.7 in SSW 5 mph 8 mph 89 % 0 in
22:52 65.8 °F 62.2 °F 29.7 in SW 6 mph 8 mph 88 % 0 in
22:57 65.8 °F 61.5 °F 29.7 in SW 9 mph 12 mph 86 % 0 in
23:02 65.8 °F 61.2 °F 29.7 in SW 7 mph 12 mph 85 % 0 in
23:12 65.8 °F 61.2 °F 29.7 in WSW 9 mph 13 mph 85 % 0 in
23:17 65.8 °F 61.5 °F 29.7 in SW 9 mph 16 mph 86 % 0 in
23:22 65.7 °F 61.3 °F 29.7 in South 5 mph 16 mph 86 % 0 in
23:27 65.5 °F 61.2 °F 29.7 in SW 9 mph 15 mph 86 % 0 in
23:32 65.3 °F 61 °F 29.7 in South 5 mph 15 mph 86 % 0 in
23:37 65.1 °F 60.8 °F 29.7 in SW 4 mph 11 mph 86 % 0 in
23:42 65.1 °F 60.4 °F 29.7 in SW 6 mph 11 mph 85 % 0 in
23:47 65.1 °F 60.1 °F 29.7 in SSW 2 mph 11 mph 84 % 0 in
23:52 65.1 °F 59.9 °F 29.7 in SSW 5 mph 11 mph 83 % 0 in
23:57 64.9 °F 59.7 °F 29.7 in WSW 10 mph 12 mph 83 % 0 in
Meteo18
Compliments of Weather Underground - 4 mb

Script developed by  Jim McMurry - jmcmurry@mwt.net Adapted for the template by  Wim van der Kuil - Leuven-Template.eu

You find our weather info also at:

European Weather Network

Weather Underground

Equipment we use:

Weather-station
Davis Vue

Weather-program
Meteobridge

Weather-server
Raspberry PI 2 B+

Provider
1 and 1

Davis Vue

Meteobridge

Raspberry PI 2 B+

1 and 1